sensor_id;sensor_type;location;lat;lon;timestamp;P1;durP1;ratioP1;P2;durP2;ratioP2
70426;SDS011;57872;55.432;37.248;2023-05-07T00:00:00;10.67;;;5.07;;
70426;SDS011;57872;55.432;37.248;2023-05-07T00:05:01;12.67;;;5.40;;
70426;SDS011;57872;55.432;37.248;2023-05-07T00:10:03;12.30;;;5.50;;
70426;SDS011;57872;55.432;37.248;2023-05-07T00:15:04;13.17;;;6.10;;
70426;SDS011;57872;55.432;37.248;2023-05-07T00:20:06;17.97;;;7.13;;
70426;SDS011;57872;55.432;37.248;2023-05-07T00:25:07;17.10;;;7.03;;
70426;SDS011;57872;55.432;37.248;2023-05-07T00:30:08;15.97;;;6.23;;
70426;SDS011;57872;55.432;37.248;2023-05-07T00:35:09;16.80;;;6.97;;
70426;SDS011;57872;55.432;37.248;2023-05-07T00:40:10;14.53;;;5.00;;
70426;SDS011;57872;55.432;37.248;2023-05-07T00:45:11;10.43;;;5.27;;
70426;SDS011;57872;55.432;37.248;2023-05-07T00:50:12;14.30;;;6.77;;
70426;SDS011;57872;55.432;37.248;2023-05-07T00:55:13;11.83;;;5.70;;
70426;SDS011;57872;55.432;37.248;2023-05-07T01:00:14;11.20;;;5.60;;
70426;SDS011;57872;55.432;37.248;2023-05-07T01:05:16;14.77;;;5.93;;
70426;SDS011;57872;55.432;37.248;2023-05-07T01:10:18;12.97;;;5.90;;
70426;SDS011;57872;55.432;37.248;2023-05-07T01:15:19;14.03;;;6.37;;
70426;SDS011;57872;55.432;37.248;2023-05-07T01:20:20;14.00;;;5.87;;
70426;SDS011;57872;55.432;37.248;2023-05-07T01:25:24;16.10;;;6.03;;
70426;SDS011;57872;55.432;37.248;2023-05-07T01:35:30;12.17;;;5.83;;
70426;SDS011;57872;55.432;37.248;2023-05-07T01:40:37;11.17;;;5.50;;
70426;SDS011;57872;55.432;37.248;2023-05-07T01:45:38;18.07;;;5.60;;
70426;SDS011;57872;55.432;37.248;2023-05-07T01:50:39;16.40;;;5.30;;
70426;SDS011;57872;55.432;37.248;2023-05-07T01:55:40;13.43;;;5.70;;
70426;SDS011;57872;55.432;37.248;2023-05-07T02:00:42;12.03;;;5.17;;
70426;SDS011;57872;55.432;37.248;2023-05-07T02:05:43;12.00;;;5.30;;
70426;SDS011;57872;55.432;37.248;2023-05-07T02:11:06;9.90;;;4.90;;
70426;SDS011;57872;55.432;37.248;2023-05-07T02:16:10;11.57;;;4.83;;
70426;SDS011;57872;55.432;37.248;2023-05-07T02:21:33;11.67;;;5.53;;
70426;SDS011;57872;55.432;37.248;2023-05-07T02:31:37;12.40;;;5.10;;
70426;SDS011;57872;55.432;37.248;2023-05-07T02:36:38;10.53;;;5.33;;
70426;SDS011;57872;55.432;37.248;2023-05-07T02:41:44;13.03;;;5.27;;
70426;SDS011;57872;55.432;37.248;2023-05-07T02:46:44;10.10;;;4.93;;
70426;SDS011;57872;55.432;37.248;2023-05-07T02:51:47;12.00;;;4.77;;
70426;SDS011;57872;55.432;37.248;2023-05-07T02:56:53;9.73;;;4.70;;
70426;SDS011;57872;55.432;37.248;2023-05-07T03:01:54;11.83;;;4.97;;
70426;SDS011;57872;55.432;37.248;2023-05-07T03:06:55;11.17;;;5.93;;
70426;SDS011;57872;55.432;37.248;2023-05-07T03:11:56;11.57;;;5.17;;
70426;SDS011;57872;55.432;37.248;2023-05-07T03:16:57;9.23;;;4.30;;
70426;SDS011;57872;55.432;37.248;2023-05-07T03:21:57;7.80;;;4.00;;
70426;SDS011;57872;55.432;37.248;2023-05-07T03:27:03;8.90;;;4.23;;
70426;SDS011;57872;55.432;37.248;2023-05-07T03:32:11;8.33;;;3.77;;
70426;SDS011;57872;55.432;37.248;2023-05-07T03:37:11;9.40;;;4.50;;
70426;SDS011;57872;55.432;37.248;2023-05-07T03:42:15;13.55;;;5.90;;
70426;SDS011;57872;55.432;37.248;2023-05-07T03:47:23;8.87;;;4.17;;
70426;SDS011;57872;55.432;37.248;2023-05-07T03:52:28;9.40;;;4.50;;
70426;SDS011;57872;55.432;37.248;2023-05-07T03:57:33;10.47;;;4.43;;
70426;SDS011;57872;55.432;37.248;2023-05-07T04:02:42;8.70;;;3.83;;
70426;SDS011;57872;55.432;37.248;2023-05-07T04:07:43;11.30;;;4.67;;
70426;SDS011;57872;55.432;37.248;2023-05-07T04:12:48;11.23;;;4.43;;
70426;SDS011;57872;55.432;37.248;2023-05-07T04:17:56;10.40;;;4.43;;
70426;SDS011;57872;55.432;37.248;2023-05-07T04:23:11;9.33;;;3.73;;
70426;SDS011;57872;55.432;37.248;2023-05-07T04:28:18;9.47;;;4.00;;
70426;SDS011;57872;55.432;37.248;2023-05-07T04:33:27;9.47;;;3.93;;
70426;SDS011;57872;55.432;37.248;2023-05-07T04:38:34;8.70;;;4.03;;
70426;SDS011;57872;55.432;37.248;2023-05-07T04:44:04;9.87;;;4.00;;
70426;SDS011;57872;55.432;37.248;2023-05-07T04:49:07;8.20;;;3.43;;
70426;SDS011;57872;55.432;37.248;2023-05-07T04:59:35;8.27;;;2.90;;
70426;SDS011;57872;55.432;37.248;2023-05-07T05:04:36;7.27;;;3.13;;
70426;SDS011;57872;55.432;37.248;2023-05-07T05:09:38;6.43;;;2.90;;
70426;SDS011;57872;55.432;37.248;2023-05-07T05:14:39;5.67;;;2.17;;
70426;SDS011;57872;55.432;37.248;2023-05-07T05:19:41;5.40;;;2.23;;
70426;SDS011;57872;55.432;37.248;2023-05-07T05:24:42;6.17;;;2.37;;
70426;SDS011;57872;55.432;37.248;2023-05-07T05:29:43;5.77;;;2.40;;
70426;SDS011;57872;55.432;37.248;2023-05-07T05:34:45;5.50;;;2.10;;
70426;SDS011;57872;55.432;37.248;2023-05-07T05:39:46;9.70;;;2.53;;
70426;SDS011;57872;55.432;37.248;2023-05-07T05:44:47;6.17;;;2.10;;
70426;SDS011;57872;55.432;37.248;2023-05-07T05:49:52;4.97;;;2.10;;
70426;SDS011;57872;55.432;37.248;2023-05-07T05:55:06;5.90;;;2.27;;
70426;SDS011;57872;55.432;37.248;2023-05-07T06:00:10;6.25;;;2.05;;
70426;SDS011;57872;55.432;37.248;2023-05-07T06:05:21;5.90;;;2.07;;
70426;SDS011;57872;55.432;37.248;2023-05-07T06:10:25;5.97;;;2.30;;
70426;SDS011;57872;55.432;37.248;2023-05-07T06:15:28;5.30;;;2.37;;
70426;SDS011;57872;55.432;37.248;2023-05-07T06:20:29;5.72;;;2.40;;
70426;SDS011;57872;55.432;37.248;2023-05-07T06:25:31;6.17;;;2.50;;
70426;SDS011;57872;55.432;37.248;2023-05-07T06:30:32;6.47;;;2.10;;
70426;SDS011;57872;55.432;37.248;2023-05-07T06:35:33;5.10;;;2.30;;
70426;SDS011;57872;55.432;37.248;2023-05-07T06:40:34;5.85;;;2.33;;
70426;SDS011;57872;55.432;37.248;2023-05-07T06:45:35;6.07;;;2.00;;
70426;SDS011;57872;55.432;37.248;2023-05-07T06:50:36;6.30;;;1.95;;
70426;SDS011;57872;55.432;37.248;2023-05-07T06:55:37;5.10;;;1.98;;
70426;SDS011;57872;55.432;37.248;2023-05-07T07:06:38;4.40;;;1.83;;
70426;SDS011;57872;55.432;37.248;2023-05-07T07:11:49;5.03;;;2.15;;
70426;SDS011;57872;55.432;37.248;2023-05-07T07:17:12;6.53;;;1.90;;
70426;SDS011;57872;55.432;37.248;2023-05-07T07:22:13;5.80;;;1.70;;
70426;SDS011;57872;55.432;37.248;2023-05-07T07:27:14;5.03;;;2.00;;
70426;SDS011;57872;55.432;37.248;2023-05-07T07:32:15;4.63;;;1.90;;
70426;SDS011;57872;55.432;37.248;2023-05-07T07:37:19;6.28;;;1.90;;
70426;SDS011;57872;55.432;37.248;2023-05-07T07:42:26;4.75;;;1.67;;
70426;SDS011;57872;55.432;37.248;2023-05-07T07:47:30;4.20;;;1.80;;
70426;SDS011;57872;55.432;37.248;2023-05-07T07:52:37;5.55;;;2.03;;
70426;SDS011;57872;55.432;37.248;2023-05-07T07:57:43;6.40;;;2.03;;
70426;SDS011;57872;55.432;37.248;2023-05-07T08:02:44;4.85;;;2.10;;
70426;SDS011;57872;55.432;37.248;2023-05-07T08:08:00;4.73;;;1.90;;
70426;SDS011;57872;55.432;37.248;2023-05-07T08:13:22;3.78;;;1.60;;
70426;SDS011;57872;55.432;37.248;2023-05-07T08:18:28;6.22;;;1.88;;
70426;SDS011;57872;55.432;37.248;2023-05-07T08:23:31;4.60;;;1.83;;
70426;SDS011;57872;55.432;37.248;2023-05-07T08:28:32;5.78;;;1.65;;
70426;SDS011;57872;55.432;37.248;2023-05-07T08:33:33;7.72;;;1.83;;
70426;SDS011;57872;55.432;37.248;2023-05-07T08:38:37;4.55;;;1.83;;
70426;SDS011;57872;55.432;37.248;2023-05-07T08:43:58;5.55;;;1.67;;
70426;SDS011;57872;55.432;37.248;2023-05-07T08:49:01;5.30;;;2.10;;
70426;SDS011;57872;55.432;37.248;2023-05-07T08:54:14;6.40;;;2.15;;
70426;SDS011;57872;55.432;37.248;2023-05-07T09:04:47;5.25;;;1.80;;
70426;SDS011;57872;55.432;37.248;2023-05-07T09:09:53;4.82;;;1.90;;
70426;SDS011;57872;55.432;37.248;2023-05-07T09:15:20;4.72;;;1.90;;
70426;SDS011;57872;55.432;37.248;2023-05-07T09:20:21;5.00;;;2.05;;
70426;SDS011;57872;55.432;37.248;2023-05-07T09:25:34;5.78;;;2.38;;
70426;SDS011;57872;55.432;37.248;2023-05-07T09:42:39;5.28;;;2.00;;
70426;SDS011;57872;55.432;37.248;2023-05-07T09:47:49;5.30;;;1.85;;
70426;SDS011;57872;55.432;37.248;2023-05-07T09:53:06;4.38;;;1.70;;
70426;SDS011;57872;55.432;37.248;2023-05-07T09:58:40;4.53;;;1.83;;
70426;SDS011;57872;55.432;37.248;2023-05-07T10:03:52;5.90;;;1.92;;
70426;SDS011;57872;55.432;37.248;2023-05-07T10:08:54;4.68;;;2.05;;
70426;SDS011;57872;55.432;37.248;2023-05-07T10:13:55;5.25;;;2.00;;
70426;SDS011;57872;55.432;37.248;2023-05-07T10:19:00;6.45;;;1.95;;
70426;SDS011;57872;55.432;37.248;2023-05-07T10:24:09;4.60;;;1.70;;
70426;SDS011;57872;55.432;37.248;2023-05-07T10:29:18;5.75;;;2.10;;
70426;SDS011;57872;55.432;37.248;2023-05-07T10:34:32;6.80;;;2.08;;
70426;SDS011;57872;55.432;37.248;2023-05-07T10:39:38;5.95;;;2.03;;
70426;SDS011;57872;55.432;37.248;2023-05-07T10:44:41;5.13;;;2.00;;
70426;SDS011;57872;55.432;37.248;2023-05-07T11:00:48;5.70;;;2.10;;
70426;SDS011;57872;55.432;37.248;2023-05-07T11:06:13;4.88;;;2.00;;
70426;SDS011;57872;55.432;37.248;2023-05-07T11:11:43;6.15;;;2.60;;
70426;SDS011;57872;55.432;37.248;2023-05-07T11:17:01;5.72;;;2.10;;
70426;SDS011;57872;55.432;37.248;2023-05-07T11:28:10;6.80;;;2.13;;
70426;SDS011;57872;55.432;37.248;2023-05-07T11:33:19;6.30;;;2.10;;
70426;SDS011;57872;55.432;37.248;2023-05-07T11:38:24;4.40;;;1.88;;
70426;SDS011;57872;55.432;37.248;2023-05-07T11:43:32;5.60;;;1.90;;
70426;SDS011;57872;55.432;37.248;2023-05-07T11:48:33;5.97;;;2.15;;
70426;SDS011;57872;55.432;37.248;2023-05-07T11:53:37;5.05;;;2.20;;
70426;SDS011;57872;55.432;37.248;2023-05-07T11:58:44;4.60;;;2.13;;
70426;SDS011;57872;55.432;37.248;2023-05-07T12:03:54;4.75;;;1.88;;
70426;SDS011;57872;55.432;37.248;2023-05-07T12:09:02;6.15;;;2.10;;
70426;SDS011;57872;55.432;37.248;2023-05-07T12:14:14;4.80;;;1.83;;
70426;SDS011;57872;55.432;37.248;2023-05-07T12:19:28;5.70;;;1.98;;
70426;SDS011;57872;55.432;37.248;2023-05-07T12:24:49;6.38;;;2.00;;
70426;SDS011;57872;55.432;37.248;2023-05-07T12:30:02;4.55;;;1.80;;
70426;SDS011;57872;55.432;37.248;2023-05-07T12:35:06;5.43;;;2.10;;
70426;SDS011;57872;55.432;37.248;2023-05-07T12:40:08;13.18;;;2.25;;
70426;SDS011;57872;55.432;37.248;2023-05-07T12:45:15;7.35;;;2.08;;
70426;SDS011;57872;55.432;37.248;2023-05-07T12:50:16;5.50;;;1.92;;
70426;SDS011;57872;55.432;37.248;2023-05-07T12:55:17;6.70;;;2.22;;
70426;SDS011;57872;55.432;37.248;2023-05-07T13:00:18;5.63;;;2.13;;
70426;SDS011;57872;55.432;37.248;2023-05-07T13:05:35;6.25;;;2.20;;
70426;SDS011;57872;55.432;37.248;2023-05-07T13:10:35;6.15;;;2.30;;
70426;SDS011;57872;55.432;37.248;2023-05-07T13:15:36;4.80;;;1.92;;
70426;SDS011;57872;55.432;37.248;2023-05-07T13:20:38;5.55;;;2.10;;
70426;SDS011;57872;55.432;37.248;2023-05-07T13:25:42;5.60;;;1.98;;
70426;SDS011;57872;55.432;37.248;2023-05-07T13:30:43;4.93;;;1.60;;
70426;SDS011;57872;55.432;37.248;2023-05-07T13:35:43;4.50;;;1.92;;
70426;SDS011;57872;55.432;37.248;2023-05-07T13:40:44;6.70;;;1.90;;
70426;SDS011;57872;55.432;37.248;2023-05-07T13:45:45;4.55;;;1.90;;
70426;SDS011;57872;55.432;37.248;2023-05-07T13:50:54;4.53;;;1.85;;
70426;SDS011;57872;55.432;37.248;2023-05-07T13:55:55;6.00;;;1.90;;
70426;SDS011;57872;55.432;37.248;2023-05-07T14:00:56;5.80;;;2.22;;
70426;SDS011;57872;55.432;37.248;2023-05-07T14:05:56;5.95;;;2.42;;
70426;SDS011;57872;55.432;37.248;2023-05-07T14:11:00;7.20;;;3.17;;
70426;SDS011;57872;55.432;37.248;2023-05-07T14:16:00;5.43;;;2.20;;
70426;SDS011;57872;55.432;37.248;2023-05-07T14:21:01;5.95;;;2.20;;
70426;SDS011;57872;55.432;37.248;2023-05-07T14:26:02;6.43;;;2.10;;
70426;SDS011;57872;55.432;37.248;2023-05-07T14:31:06;5.88;;;2.13;;
70426;SDS011;57872;55.432;37.248;2023-05-07T14:36:06;7.28;;;2.17;;
70426;SDS011;57872;55.432;37.248;2023-05-07T14:41:07;6.75;;;2.85;;
70426;SDS011;57872;55.432;37.248;2023-05-07T14:46:15;6.80;;;2.30;;
70426;SDS011;57872;55.432;37.248;2023-05-07T14:51:17;6.05;;;1.80;;
70426;SDS011;57872;55.432;37.248;2023-05-07T14:56:18;5.28;;;2.10;;
70426;SDS011;57872;55.432;37.248;2023-05-07T15:01:20;6.10;;;2.50;;
70426;SDS011;57872;55.432;37.248;2023-05-07T15:06:21;8.02;;;2.83;;
70426;SDS011;57872;55.432;37.248;2023-05-07T15:11:24;5.95;;;2.10;;
70426;SDS011;57872;55.432;37.248;2023-05-07T15:16:25;6.68;;;2.10;;
70426;SDS011;57872;55.432;37.248;2023-05-07T15:21:26;6.07;;;2.42;;
70426;SDS011;57872;55.432;37.248;2023-05-07T15:26:27;5.75;;;2.40;;
70426;SDS011;57872;55.432;37.248;2023-05-07T15:31:28;6.38;;;2.70;;
70426;SDS011;57872;55.432;37.248;2023-05-07T15:36:29;5.82;;;2.40;;
70426;SDS011;57872;55.432;37.248;2023-05-07T15:41:33;6.72;;;2.40;;
70426;SDS011;57872;55.432;37.248;2023-05-07T15:46:37;6.22;;;2.22;;
70426;SDS011;57872;55.432;37.248;2023-05-07T15:51:40;5.25;;;2.40;;
70426;SDS011;57872;55.432;37.248;2023-05-07T15:56:41;7.57;;;2.58;;
70426;SDS011;57872;55.432;37.248;2023-05-07T16:01:44;7.13;;;2.85;;
70426;SDS011;57872;55.432;37.248;2023-05-07T16:06:45;5.07;;;1.90;;
70426;SDS011;57872;55.432;37.248;2023-05-07T16:11:47;6.32;;;2.50;;
70426;SDS011;57872;55.432;37.248;2023-05-07T16:16:48;5.13;;;2.22;;
70426;SDS011;57872;55.432;37.248;2023-05-07T16:21:54;7.40;;;2.55;;
70426;SDS011;57872;55.432;37.248;2023-05-07T16:27:02;7.03;;;2.53;;
70426;SDS011;57872;55.432;37.248;2023-05-07T16:32:05;11.98;;;2.65;;
70426;SDS011;57872;55.432;37.248;2023-05-07T16:37:09;9.38;;;2.70;;
70426;SDS011;57872;55.432;37.248;2023-05-07T16:42:13;6.95;;;2.63;;
70426;SDS011;57872;55.432;37.248;2023-05-07T16:47:14;6.65;;;2.50;;
70426;SDS011;57872;55.432;37.248;2023-05-07T16:52:15;7.68;;;3.17;;
70426;SDS011;57872;55.432;37.248;2023-05-07T16:57:15;6.88;;;2.38;;
70426;SDS011;57872;55.432;37.248;2023-05-07T17:02:17;5.82;;;2.60;;
70426;SDS011;57872;55.432;37.248;2023-05-07T17:07:18;7.35;;;2.38;;
70426;SDS011;57872;55.432;37.248;2023-05-07T17:12:19;8.50;;;2.63;;
70426;SDS011;57872;55.432;37.248;2023-05-07T17:17:20;7.05;;;2.85;;
70426;SDS011;57872;55.432;37.248;2023-05-07T17:22:21;7.15;;;2.90;;
70426;SDS011;57872;55.432;37.248;2023-05-07T17:27:25;7.60;;;2.97;;
70426;SDS011;57872;55.432;37.248;2023-05-07T17:32:25;7.68;;;3.03;;
70426;SDS011;57872;55.432;37.248;2023-05-07T17:37:31;6.95;;;3.20;;
70426;SDS011;57872;55.432;37.248;2023-05-07T17:42:35;9.15;;;3.50;;
70426;SDS011;57872;55.432;37.248;2023-05-07T17:47:51;6.55;;;3.42;;
70426;SDS011;57872;55.432;37.248;2023-05-07T17:52:52;14.95;;;6.60;;
70426;SDS011;57872;55.432;37.248;2023-05-07T17:57:53;12.38;;;6.22;;
70426;SDS011;57872;55.432;37.248;2023-05-07T18:02:55;10.60;;;4.97;;
70426;SDS011;57872;55.432;37.248;2023-05-07T18:08:05;10.15;;;5.10;;
70426;SDS011;57872;55.432;37.248;2023-05-07T18:13:07;12.55;;;5.57;;
70426;SDS011;57872;55.432;37.248;2023-05-07T18:18:08;19.80;;;7.97;;
70426;SDS011;57872;55.432;37.248;2023-05-07T18:23:16;15.10;;;6.43;;
70426;SDS011;57872;55.432;37.248;2023-05-07T18:28:25;15.13;;;7.70;;
70426;SDS011;57872;55.432;37.248;2023-05-07T18:33:26;13.88;;;6.90;;
70426;SDS011;57872;55.432;37.248;2023-05-07T18:38:28;17.50;;;7.03;;
70426;SDS011;57872;55.432;37.248;2023-05-07T18:43:29;12.48;;;6.47;;
70426;SDS011;57872;55.432;37.248;2023-05-07T18:48:30;15.52;;;7.47;;
70426;SDS011;57872;55.432;37.248;2023-05-07T18:53:32;13.85;;;8.00;;
70426;SDS011;57872;55.432;37.248;2023-05-07T18:58:33;17.88;;;8.80;;
70426;SDS011;57872;55.432;37.248;2023-05-07T19:03:34;20.80;;;9.10;;
70426;SDS011;57872;55.432;37.248;2023-05-07T19:08:40;18.92;;;9.15;;
70426;SDS011;57872;55.432;37.248;2023-05-07T19:13:41;22.00;;;11.02;;
70426;SDS011;57872;55.432;37.248;2023-05-07T19:18:42;20.27;;;9.57;;
70426;SDS011;57872;55.432;37.248;2023-05-07T19:23:43;15.15;;;7.90;;
70426;SDS011;57872;55.432;37.248;2023-05-07T19:28:45;16.53;;;8.57;;
70426;SDS011;57872;55.432;37.248;2023-05-07T19:33:45;23.38;;;10.50;;
70426;SDS011;57872;55.432;37.248;2023-05-07T19:38:46;28.30;;;13.48;;
70426;SDS011;57872;55.432;37.248;2023-05-07T19:43:52;25.10;;;11.50;;
70426;SDS011;57872;55.432;37.248;2023-05-07T19:48:53;25.83;;;11.30;;
70426;SDS011;57872;55.432;37.248;2023-05-07T19:53:56;24.38;;;12.05;;
70426;SDS011;57872;55.432;37.248;2023-05-07T19:58:58;26.23;;;11.20;;
70426;SDS011;57872;55.432;37.248;2023-05-07T20:03:59;23.17;;;11.03;;
70426;SDS011;57872;55.432;37.248;2023-05-07T20:09:01;37.65;;;12.63;;
70426;SDS011;57872;55.432;37.248;2023-05-07T20:14:01;32.40;;;12.33;;
70426;SDS011;57872;55.432;37.248;2023-05-07T20:19:05;26.35;;;12.25;;
70426;SDS011;57872;55.432;37.248;2023-05-07T20:24:06;24.27;;;11.83;;
70426;SDS011;57872;55.432;37.248;2023-05-07T20:29:07;23.67;;;11.90;;
70426;SDS011;57872;55.432;37.248;2023-05-07T20:34:08;24.80;;;11.80;;
70426;SDS011;57872;55.432;37.248;2023-05-07T20:39:09;25.67;;;11.97;;
70426;SDS011;57872;55.432;37.248;2023-05-07T20:44:13;22.90;;;11.23;;
70426;SDS011;57872;55.432;37.248;2023-05-07T20:49:18;23.20;;;11.13;;
70426;SDS011;57872;55.432;37.248;2023-05-07T20:54:32;22.80;;;11.93;;
70426;SDS011;57872;55.432;37.248;2023-05-07T20:59:51;28.13;;;12.40;;
70426;SDS011;57872;55.432;37.248;2023-05-07T21:04:52;24.20;;;11.83;;
70426;SDS011;57872;55.432;37.248;2023-05-07T21:09:56;28.98;;;12.10;;
70426;SDS011;57872;55.432;37.248;2023-05-07T21:14:59;25.17;;;12.13;;
70426;SDS011;57872;55.432;37.248;2023-05-07T21:20:50;23.80;;;12.32;;
70426;SDS011;57872;55.432;37.248;2023-05-07T21:26:18;22.48;;;11.70;;
70426;SDS011;57872;55.432;37.248;2023-05-07T21:37:09;25.70;;;11.90;;
70426;SDS011;57872;55.432;37.248;2023-05-07T21:42:13;24.73;;;11.53;;
70426;SDS011;57872;55.432;37.248;2023-05-07T21:47:14;24.47;;;11.70;;
70426;SDS011;57872;55.432;37.248;2023-05-07T21:52:16;23.47;;;11.60;;
70426;SDS011;57872;55.432;37.248;2023-05-07T21:57:40;19.43;;;10.57;;
70426;SDS011;57872;55.432;37.248;2023-05-07T22:02:54;21.87;;;11.27;;
70426;SDS011;57872;55.432;37.248;2023-05-07T22:07:58;22.77;;;11.47;;
70426;SDS011;57872;55.432;37.248;2023-05-07T22:12:59;21.33;;;10.60;;
70426;SDS011;57872;55.432;37.248;2023-05-07T22:17:59;22.93;;;11.60;;
70426;SDS011;57872;55.432;37.248;2023-05-07T22:23:00;26.53;;;10.80;;
70426;SDS011;57872;55.432;37.248;2023-05-07T22:28:01;22.73;;;11.20;;
70426;SDS011;57872;55.432;37.248;2023-05-07T22:33:02;22.77;;;10.30;;
70426;SDS011;57872;55.432;37.248;2023-05-07T22:38:02;23.50;;;11.90;;
70426;SDS011;57872;55.432;37.248;2023-05-07T22:43:03;20.00;;;11.23;;
70426;SDS011;57872;55.432;37.248;2023-05-07T22:48:04;20.30;;;11.23;;
70426;SDS011;57872;55.432;37.248;2023-05-07T22:53:05;21.13;;;10.23;;
70426;SDS011;57872;55.432;37.248;2023-05-07T22:58:06;21.63;;;10.43;;
70426;SDS011;57872;55.432;37.248;2023-05-07T23:03:10;21.27;;;11.20;;
70426;SDS011;57872;55.432;37.248;2023-05-07T23:08:11;24.87;;;11.27;;
70426;SDS011;57872;55.432;37.248;2023-05-07T23:13:12;19.77;;;10.33;;
70426;SDS011;57872;55.432;37.248;2023-05-07T23:23:16;21.63;;;10.70;;
70426;SDS011;57872;55.432;37.248;2023-05-07T23:33:21;19.37;;;10.30;;
70426;SDS011;57872;55.432;37.248;2023-05-07T23:38:22;25.13;;;10.00;;
70426;SDS011;57872;55.432;37.248;2023-05-07T23:43:22;22.27;;;9.50;;
70426;SDS011;57872;55.432;37.248;2023-05-07T23:48:23;17.93;;;9.43;;
70426;SDS011;57872;55.432;37.248;2023-05-07T23:53:24;18.80;;;10.27;;
70426;SDS011;57872;55.432;37.248;2023-05-07T23:58:25;18.30;;;10.13;;
